createdAt,value
2022-08-12T00:01:04.148Z,22.10
2022-08-12T00:03:51.825Z,22.10
2022-08-12T00:06:41.099Z,22.10
2022-08-12T00:09:27.238Z,22.10
2022-08-12T00:12:13.604Z,22.00
2022-08-12T00:15:01.388Z,22.00
2022-08-12T00:17:47.623Z,22.00
2022-08-12T00:20:33.421Z,21.90
2022-08-12T00:23:19.175Z,21.90
2022-08-12T00:26:23.794Z,21.90
2022-08-12T00:29:13.681Z,21.90
2022-08-12T00:32:01.277Z,21.80
2022-08-12T00:34:51.709Z,21.80
2022-08-12T00:37:42.673Z,21.80
2022-08-12T00:40:32.405Z,21.70
2022-08-12T00:43:00.310Z,21.70
2022-08-12T00:45:47.579Z,21.70
2022-08-12T00:48:15.882Z,21.70
2022-08-12T00:50:43.691Z,21.60
2022-08-12T00:53:12.765Z,21.60
2022-08-12T00:55:46.545Z,21.60
2022-08-12T00:58:18.367Z,21.60
2022-08-12T01:00:45.712Z,21.60
2022-08-12T01:03:18.665Z,21.50
2022-08-12T01:06:06.885Z,21.50
2022-08-12T01:08:52.613Z,21.50
2022-08-12T01:11:34.842Z,21.40
2022-08-12T01:14:03.417Z,21.40
2022-08-12T01:16:30.829Z,21.40
2022-08-12T01:18:58.940Z,21.40
2022-08-12T01:21:26.698Z,21.40
2022-08-12T01:24:32.375Z,21.30
2022-08-12T01:27:03.493Z,21.30
2022-08-12T01:29:42.322Z,21.30
2022-08-12T01:32:15.180Z,21.30
2022-08-12T01:34:51.389Z,21.30
2022-08-12T01:37:22.410Z,21.20
2022-08-12T01:40:33.683Z,21.20
2022-08-12T01:42:52.077Z,21.20
2022-08-12T01:45:24.750Z,21.10
2022-08-12T01:48:05.781Z,21.10
2022-08-12T01:50:55.109Z,21.10
2022-08-12T01:53:53.625Z,21.10
2022-08-12T01:56:24.592Z,21.10
2022-08-12T01:59:16.654Z,21.10
2022-08-12T02:01:47.802Z,21.00
2022-08-12T02:04:50.417Z,21.00
2022-08-12T02:08:09.634Z,21.00
2022-08-12T02:11:13.889Z,21.00
2022-08-12T02:14:02.357Z,20.90
2022-08-12T02:16:39.610Z,20.90
2022-08-12T02:19:38.951Z,20.90
2022-08-12T02:22:17.465Z,20.80
2022-08-12T02:24:46.738Z,20.80
2022-08-12T02:27:17.557Z,20.80
2022-08-12T02:29:44.932Z,20.70
2022-08-12T02:32:14.509Z,20.70
2022-08-12T02:34:44.676Z,20.70
2022-08-12T02:37:15.671Z,20.70
2022-08-12T02:39:48.814Z,20.70
2022-08-12T02:42:20.725Z,20.70
2022-08-12T02:44:52.377Z,20.60
2022-08-12T02:47:59.404Z,20.60
2022-08-12T02:50:11.397Z,20.60
2022-08-12T02:52:40.336Z,20.60
2022-08-12T02:55:28.927Z,20.50
2022-08-12T02:58:11.936Z,20.50
2022-08-12T03:00:40.731Z,20.50
2022-08-12T03:03:10.338Z,20.50
2022-08-12T03:05:45.473Z,20.50
2022-08-12T03:08:31.793Z,20.40
2022-08-12T03:11:18.780Z,20.50
2022-08-12T03:13:55.730Z,20.40
2022-08-12T03:16:23.976Z,20.40
2022-08-12T03:18:52.258Z,20.40
2022-08-12T03:21:53.103Z,20.40
2022-08-12T03:24:09.687Z,20.30
2022-08-12T03:26:37.756Z,20.30
2022-08-12T03:29:06.939Z,20.30
2022-08-12T03:31:34.847Z,20.30
2022-08-12T03:34:10.081Z,20.20
2022-08-12T03:36:39.647Z,20.30
2022-08-12T03:39:15.586Z,20.20
2022-08-12T03:41:57.959Z,20.20
2022-08-12T03:44:50.765Z,20.20
2022-08-12T03:47:51.503Z,20.20
2022-08-12T03:50:38.805Z,20.10
2022-08-12T03:53:29.133Z,20.10
2022-08-12T03:56:15.385Z,20.10
2022-08-12T03:59:01.223Z,20.10
2022-08-12T04:01:28.396Z,20.00
2022-08-12T04:04:02.200Z,20.00
2022-08-12T04:06:35.124Z,20.00
2022-08-12T04:09:14.675Z,20.00
2022-08-12T04:12:04.375Z,20.00
2022-08-12T04:14:33.091Z,19.90
2022-08-12T04:17:01.224Z,19.90
2022-08-12T04:19:28.887Z,19.90
2022-08-12T04:22:01.301Z,19.90
2022-08-12T04:24:35.497Z,19.90
2022-08-12T04:27:05.798Z,19.80
2022-08-12T04:30:30.890Z,19.90
2022-08-12T04:32:21.989Z,19.80
2022-08-12T04:34:52.603Z,19.80
2022-08-12T04:37:19.750Z,19.80
2022-08-12T04:39:47.409Z,19.80
2022-08-12T04:42:14.668Z,19.80
2022-08-12T04:44:42.521Z,19.80
2022-08-12T04:47:17.112Z,19.70
2022-08-12T04:49:46.769Z,19.70
2022-08-12T04:52:15.301Z,19.70
2022-08-12T04:54:44.036Z,19.70
2022-08-12T04:57:11.803Z,19.70
2022-08-12T04:59:47.829Z,19.70
2022-08-12T05:02:20.543Z,19.70
2022-08-12T05:04:51.265Z,19.60
2022-08-12T05:07:18.587Z,19.70
2022-08-12T05:09:59.023Z,19.70
2022-08-12T05:12:34.306Z,19.60
2022-08-12T05:15:02.170Z,19.60
2022-08-12T05:17:29.652Z,19.60
2022-08-12T05:19:58.005Z,19.60
2022-08-12T05:22:28.259Z,19.60
2022-08-12T05:24:55.416Z,19.60
2022-08-12T05:27:23.090Z,19.60
2022-08-12T05:30:07.199Z,19.60
2022-08-12T05:32:37.087Z,19.60
2022-08-12T05:35:08.589Z,19.60
2022-08-12T05:37:35.815Z,19.60
2022-08-12T05:40:10.685Z,19.60
2022-08-12T05:42:38.631Z,19.50
2022-08-12T05:45:07.005Z,19.50
2022-08-12T05:47:52.834Z,19.50
2022-08-12T05:50:21.236Z,19.50
2022-08-12T05:52:48.590Z,19.50
2022-08-12T05:55:15.854Z,19.50
2022-08-12T05:57:48.535Z,19.50
2022-08-12T06:00:17.525Z,19.50
2022-08-12T06:02:46.615Z,19.50
2022-08-12T06:05:14.115Z,19.50
2022-08-12T06:08:02.076Z,19.50
2022-08-12T06:10:32.056Z,19.50
2022-08-12T06:13:03.160Z,19.50
2022-08-12T06:15:31.366Z,19.50
2022-08-12T06:18:13.827Z,19.60
2022-08-12T06:20:47.704Z,19.60
2022-08-12T06:23:15.465Z,19.60
2022-08-12T06:25:43.751Z,19.60
2022-08-12T06:28:19.622Z,19.60
2022-08-12T06:31:02.608Z,19.60
2022-08-12T06:33:59.667Z,19.60
2022-08-12T06:36:30.010Z,19.60
2022-08-12T06:38:59.971Z,19.70
2022-08-12T06:42:30.604Z,19.70
2022-08-12T06:44:33.163Z,19.70
2022-08-12T06:47:00.637Z,19.70
2022-08-12T06:49:35.798Z,19.80
2022-08-12T06:52:04.589Z,19.80
2022-08-12T06:54:33.399Z,19.80
2022-08-12T06:57:57.908Z,19.80
2022-08-12T06:59:48.658Z,19.90
2022-08-12T07:02:15.803Z,19.90
2022-08-12T07:04:43.541Z,19.90
2022-08-12T07:07:11.072Z,20.00
2022-08-12T07:10:00.034Z,20.00
2022-08-12T07:12:27.980Z,20.00
2022-08-12T07:14:59.659Z,20.00
2022-08-12T07:17:36.392Z,20.10
2022-08-12T07:20:06.764Z,20.10
2022-08-12T07:22:34.156Z,20.10
2022-08-12T07:25:19.871Z,20.20
2022-08-12T07:27:47.012Z,20.20
2022-08-12T07:30:14.547Z,20.20
2022-08-12T07:32:41.799Z,20.30
2022-08-12T07:35:09.279Z,20.30
2022-08-12T07:37:42.186Z,20.30
2022-08-12T07:40:12.100Z,20.40
2022-08-12T07:42:41.947Z,20.40
2022-08-12T07:45:09.595Z,20.50
2022-08-12T07:47:38.119Z,20.50
2022-08-12T07:50:09.370Z,20.50
2022-08-12T07:52:43.058Z,20.60
2022-08-12T07:55:11.662Z,20.60
2022-08-12T07:57:54.297Z,20.60
2022-08-12T08:00:21.576Z,20.70
2022-08-12T08:02:49.447Z,20.70
2022-08-12T08:05:18.751Z,20.80
2022-08-12T08:07:45.826Z,20.80
2022-08-12T08:10:13.982Z,20.90
2022-08-12T08:12:58.740Z,20.90
2022-08-12T08:16:04.495Z,20.90
2022-08-12T08:18:26.550Z,21.00
2022-08-12T08:20:54.595Z,21.00
2022-08-12T08:23:21.821Z,21.00
2022-08-12T08:25:50.169Z,21.10
2022-08-12T08:28:17.784Z,21.10
2022-08-12T08:30:48.787Z,21.10
2022-08-12T08:33:23.593Z,21.20
2022-08-12T08:36:06.919Z,21.20
2022-08-12T08:38:58.417Z,21.30
2022-08-12T08:42:16.166Z,21.30
2022-08-12T08:44:38.314Z,21.40
2022-08-12T08:47:10.980Z,21.50
2022-08-12T08:49:39.564Z,21.50
2022-08-12T08:52:08.539Z,21.50
2022-08-12T08:54:37.846Z,21.60
2022-08-12T08:57:08.287Z,21.60
2022-08-12T08:59:35.540Z,21.60
2022-08-12T09:02:02.878Z,21.70
2022-08-12T09:05:11.235Z,21.70
2022-08-12T09:07:51.972Z,21.70
2022-08-12T09:10:09.288Z,21.80
2022-08-12T09:13:23.023Z,21.80
2022-08-12T09:21:26.251Z,22.00
2022-08-12T09:24:07.452Z,22.00
2022-08-12T09:26:38.351Z,22.10
2022-08-12T09:30:11.758Z,22.10
2022-08-12T09:32:56.426Z,22.20
2022-08-12T09:35:00.744Z,22.20
2022-08-12T09:37:28.419Z,22.20
2022-08-12T09:40:57.418Z,22.30
2022-08-12T09:43:24.965Z,22.30
2022-08-12T09:46:06.890Z,22.40
2022-08-12T09:48:44.858Z,22.40
2022-08-12T09:51:24.401Z,22.50
2022-08-12T09:54:31.189Z,22.50
2022-08-12T09:57:03.164Z,22.60
2022-08-12T10:00:14.016Z,22.60
2022-08-12T10:02:45.762Z,22.70
2022-08-12T10:05:09.281Z,22.70
2022-08-12T10:07:41.233Z,22.70
2022-08-12T10:10:22.955Z,22.80
2022-08-12T10:13:35.151Z,22.80
2022-08-12T10:16:05.297Z,22.90
2022-08-12T10:18:35.578Z,22.90
2022-08-12T10:21:10.817Z,23.00
2022-08-12T10:23:40.890Z,23.10
2022-08-12T10:26:37.447Z,23.10
2022-08-12T10:30:38.248Z,23.20
2022-08-12T10:32:44.373Z,23.20
2022-08-12T10:35:10.620Z,23.20
2022-08-12T10:38:34.337Z,23.30
2022-08-12T10:40:31.374Z,23.30
2022-08-12T10:43:19.029Z,23.30
2022-08-12T10:45:49.379Z,23.40
2022-08-12T10:48:33.637Z,23.40
2022-08-12T10:51:51.369Z,23.50
2022-08-12T10:54:00.809Z,23.50
2022-08-12T10:56:34.467Z,23.60
2022-08-12T10:59:06.286Z,23.70
2022-08-12T11:04:17.316Z,23.70
2022-08-12T11:04:39.548Z,23.70
2022-08-12T11:08:33.613Z,23.80
2022-08-12T11:10:02.621Z,23.80
2022-08-12T11:12:57.083Z,23.90
2022-08-12T11:15:33.220Z,23.90
2022-08-12T11:18:18.538Z,23.90
2022-08-12T11:20:48.136Z,24.00
2022-08-12T11:23:25.777Z,24.00
2022-08-12T11:26:06.183Z,24.00
2022-08-12T11:28:37.193Z,24.00
2022-08-12T11:31:12.134Z,24.10
2022-08-12T11:34:06.516Z,24.10
2022-08-12T11:36:30.699Z,24.20
2022-08-12T11:38:58.523Z,24.30
2022-08-12T11:41:32.880Z,24.30
2022-08-12T11:44:01.991Z,24.30
2022-08-12T11:46:51.409Z,24.40
2022-08-12T11:49:31.081Z,24.40
2022-08-12T11:52:03.667Z,24.50
2022-08-12T11:54:31.593Z,24.50
2022-08-12T11:57:02.269Z,24.50
2022-08-12T12:02:20.706Z,24.60
2022-08-12T12:04:52.534Z,24.60
2022-08-12T12:07:22.794Z,24.70
2022-08-12T12:10:11.618Z,24.70
2022-08-12T12:12:41.561Z,24.70
2022-08-12T12:15:25.089Z,24.80
2022-08-12T12:18:04.792Z,24.80
2022-08-12T12:20:32.049Z,24.80
2022-08-12T12:22:59.211Z,24.90
2022-08-12T12:26:06.628Z,24.90
2022-08-12T12:28:36.520Z,25.00
2022-08-12T12:31:04.082Z,25.00
2022-08-12T12:33:46.188Z,25.10
2022-08-12T12:36:24.049Z,25.10
2022-08-12T12:38:55.102Z,25.10
2022-08-12T12:41:22.265Z,25.20
2022-08-12T12:44:13.424Z,25.20
2022-08-12T12:46:54.774Z,25.20
2022-08-12T12:49:26.287Z,25.20
2022-08-12T12:52:19.607Z,25.20
2022-08-12T12:54:52.951Z,25.30
2022-08-12T12:57:35.907Z,25.30
2022-08-12T13:00:17.698Z,25.40
2022-08-12T13:02:53.619Z,25.30
2022-08-12T13:05:27.586Z,25.40
2022-08-12T13:08:00.635Z,25.40
2022-08-12T13:10:36.680Z,25.50
2022-08-12T13:14:07.383Z,25.50
2022-08-12T13:15:53.996Z,25.50
2022-08-12T13:18:28.872Z,25.50
2022-08-12T13:20:59.497Z,25.50
2022-08-12T13:23:36.355Z,25.60
2022-08-12T13:26:05.025Z,25.60
2022-08-12T13:28:32.342Z,25.70
2022-08-12T13:31:00.069Z,25.70
2022-08-12T13:33:28.847Z,25.70
2022-08-12T13:36:18.226Z,25.70
2022-08-12T13:38:54.354Z,25.70
2022-08-12T13:41:34.230Z,25.80
2022-08-12T13:44:04.586Z,25.80
2022-08-12T13:46:32.455Z,25.80
2022-08-12T13:48:59.664Z,25.80
2022-08-12T13:51:27.482Z,25.90
2022-08-12T13:54:13.864Z,25.90
2022-08-12T13:56:41.398Z,25.90
2022-08-12T13:59:20.560Z,25.90
2022-08-12T14:01:56.632Z,25.90
2022-08-12T14:04:24.214Z,25.90
2022-08-12T14:06:54.066Z,25.90
2022-08-12T14:09:21.202Z,26.00
2022-08-12T14:11:59.163Z,26.00
2022-08-12T14:14:31.663Z,26.00
2022-08-12T14:17:05.294Z,26.00
2022-08-12T14:19:36.073Z,26.00
2022-08-12T14:22:10.529Z,26.00
2022-08-12T14:24:41.133Z,26.10
2022-08-12T14:27:10.702Z,26.10
2022-08-12T14:30:04.098Z,26.10
2022-08-12T14:32:36.806Z,26.10
2022-08-12T14:35:06.813Z,26.10
2022-08-12T14:37:57.695Z,26.10
2022-08-12T14:40:30.284Z,26.10
2022-08-12T14:42:58.890Z,26.10
2022-08-12T14:45:45.292Z,26.10
2022-08-12T14:48:18.729Z,26.20
2022-08-12T14:51:09.519Z,26.20
2022-08-12T14:59:56.399Z,26.20
2022-08-12T15:02:20.594Z,26.20
2022-08-12T15:04:54.832Z,26.20
2022-08-12T15:07:33.523Z,26.20
2022-08-12T15:10:09.790Z,26.20
2022-08-12T15:12:40.644Z,26.20
2022-08-12T15:15:10.337Z,26.20
2022-08-12T15:17:38.797Z,26.20
2022-08-12T15:20:28.413Z,26.20
2022-08-12T15:22:58.116Z,26.20
2022-08-12T15:25:29.248Z,26.20
2022-08-12T15:28:10.902Z,26.30
2022-08-12T15:30:48.597Z,26.20
2022-08-12T15:33:20.927Z,26.20
2022-08-12T15:35:51.939Z,26.20
2022-08-12T15:38:24.711Z,26.20
2022-08-12T15:40:53.796Z,26.30
2022-08-12T15:43:35.447Z,26.30
2022-08-12T15:46:15.913Z,26.30
2022-08-12T15:48:47.146Z,26.20
2022-08-12T15:51:58.831Z,26.30
2022-08-12T15:54:34.115Z,26.30
2022-08-12T15:57:07.686Z,26.30
2022-08-12T16:00:00.093Z,26.30
2022-08-12T16:02:29.945Z,26.30
2022-08-12T16:04:57.971Z,26.30
2022-08-12T16:07:29.906Z,26.30
2022-08-12T16:10:07.058Z,26.30
2022-08-12T16:12:55.092Z,26.30
2022-08-12T16:15:29.322Z,26.30
2022-08-12T16:18:18.704Z,26.30
2022-08-12T16:20:46.651Z,26.30
2022-08-12T16:23:35.794Z,26.30
2022-08-12T16:26:15.099Z,26.30
2022-08-12T16:28:48.026Z,26.20
2022-08-12T16:31:23.147Z,26.30
2022-08-12T16:33:58.902Z,26.30
2022-08-12T16:36:29.463Z,26.20
2022-08-12T16:38:57.279Z,26.30
2022-08-12T16:41:25.718Z,26.30
2022-08-12T16:43:55.463Z,26.20
2022-08-12T16:46:32.282Z,26.20
2022-08-12T16:49:09.049Z,26.20
2022-08-12T16:51:46.801Z,26.20
2022-08-12T16:54:36.006Z,26.20
2022-08-12T16:57:05.585Z,26.20
2022-08-12T16:59:53.477Z,26.20
2022-08-12T17:02:31.382Z,26.20
2022-08-12T17:05:03.525Z,26.10
2022-08-12T17:07:36.972Z,26.20
2022-08-12T17:10:10.357Z,26.10
2022-08-12T17:12:39.649Z,26.20
2022-08-12T17:15:51.146Z,26.10
2022-08-12T17:18:15.199Z,26.10
2022-08-12T17:20:48.632Z,26.10
2022-08-12T17:23:17.844Z,26.10
2022-08-12T17:25:52.838Z,26.10
2022-08-12T17:28:23.529Z,26.10
2022-08-12T17:30:57.215Z,26.10
2022-08-12T17:33:27.782Z,26.10
2022-08-12T17:36:05.899Z,26.10
2022-08-12T17:38:36.085Z,26.10
2022-08-12T17:41:22.499Z,26.00
2022-08-12T17:43:58.307Z,26.00
2022-08-12T17:46:33.263Z,26.00
2022-08-12T17:49:00.851Z,26.00
2022-08-12T17:51:50.179Z,26.00
2022-08-12T17:54:18.152Z,26.00
2022-08-12T17:56:48.101Z,26.00
2022-08-12T17:59:47.368Z,26.00
2022-08-12T18:02:12.269Z,26.00
2022-08-12T18:05:05.001Z,26.00
2022-08-12T18:07:35.644Z,25.90
2022-08-12T18:10:05.108Z,25.90
2022-08-12T18:12:51.127Z,25.90
2022-08-12T18:15:26.498Z,25.90
2022-08-12T18:18:17.060Z,25.90
2022-08-12T18:20:47.085Z,25.90
2022-08-12T18:23:14.338Z,25.80
2022-08-12T18:26:14.138Z,25.80
2022-08-12T18:28:45.156Z,25.80
2022-08-12T18:31:43.854Z,25.80
2022-08-12T18:34:15.605Z,25.80
2022-08-12T18:36:51.671Z,25.80
2022-08-12T18:39:21.422Z,25.70
2022-08-12T18:41:49.828Z,25.70
2022-08-12T18:44:16.943Z,25.70
2022-08-12T18:46:53.946Z,25.70
2022-08-12T18:49:30.610Z,25.70
2022-08-12T18:52:04.697Z,25.60
2022-08-12T18:54:41.401Z,25.60
2022-08-12T18:57:46.101Z,25.60
2022-08-12T19:00:07.710Z,25.60
2022-08-12T19:02:39.771Z,25.50
2022-08-12T19:05:11.121Z,25.50
2022-08-12T19:08:00.635Z,25.50
2022-08-12T19:10:31.641Z,25.50
2022-08-12T19:13:21.252Z,25.40
2022-08-12T19:15:53.642Z,25.40
2022-08-12T19:18:22.442Z,25.40
2022-08-12T19:20:50.421Z,25.40
2022-08-12T19:23:20.993Z,25.30
2022-08-12T19:26:00.572Z,25.30
2022-08-12T19:28:35.482Z,25.30
2022-08-12T19:31:55.437Z,25.30
2022-08-12T19:37:27.188Z,25.30
2022-08-12T19:40:09.659Z,25.20
2022-08-12T19:42:53.292Z,25.20
2022-08-12T19:45:22.181Z,25.20
2022-08-12T19:47:49.512Z,25.20
2022-08-12T19:50:20.283Z,25.20
2022-08-12T19:52:53.427Z,25.10
2022-08-12T19:55:22.468Z,25.10
2022-08-12T19:58:01.673Z,25.10
2022-08-12T20:00:34.984Z,25.00
2022-08-12T20:03:04.720Z,25.00
2022-08-12T20:06:05.682Z,25.00
2022-08-12T20:08:34.007Z,25.00
2022-08-12T20:12:12.790Z,25.00
2022-08-12T20:14:00.999Z,24.90
2022-08-12T20:16:52.718Z,24.90
2022-08-12T20:19:52.981Z,24.90
2022-08-12T20:22:24.477Z,24.80
2022-08-12T20:25:01.632Z,24.80
2022-08-12T20:28:04.218Z,24.80
2022-08-12T20:30:20.818Z,24.80
2022-08-12T20:33:17.330Z,24.80
2022-08-12T20:36:06.900Z,24.80
2022-08-12T20:38:39.873Z,24.70
2022-08-12T20:41:17.587Z,24.70
2022-08-12T20:43:51.924Z,24.70
2022-08-12T20:46:20.864Z,24.70
2022-08-12T20:48:55.111Z,24.60
2022-08-12T20:51:27.706Z,24.60
2022-08-12T20:53:58.894Z,24.60
2022-08-12T20:56:34.635Z,24.60
2022-08-12T20:59:10.947Z,24.50
2022-08-12T21:01:47.565Z,24.50
2022-08-12T21:04:35.934Z,24.50
2022-08-12T21:07:09.767Z,24.50
2022-08-12T21:09:41.001Z,24.50
2022-08-12T21:12:28.089Z,24.40
2022-08-12T21:15:17.590Z,24.40
2022-08-12T21:18:08.949Z,24.40
2022-08-12T21:20:37.876Z,24.40
2022-08-12T21:23:06.469Z,24.30
2022-08-12T21:25:44.199Z,24.30
2022-08-12T21:28:13.705Z,24.30
2022-08-12T21:31:11.741Z,24.30
2022-08-12T21:33:32.220Z,24.30
2022-08-12T21:36:22.545Z,24.20
2022-08-12T21:38:51.305Z,24.20
2022-08-12T21:41:20.374Z,24.20
2022-08-12T21:43:50.503Z,24.10
2022-08-12T21:46:35.337Z,24.10
2022-08-12T21:49:05.249Z,24.10
2022-08-12T21:51:49.082Z,24.10
2022-08-12T21:54:23.666Z,24.10
2022-08-12T21:56:53.734Z,24.10
2022-08-12T21:59:21.939Z,24.10
2022-08-12T22:01:49.738Z,24.00
2022-08-12T22:04:36.713Z,24.00
2022-08-12T22:07:06.251Z,24.00
2022-08-12T22:09:43.009Z,24.00
2022-08-12T22:12:29.770Z,24.00
2022-08-12T22:14:56.989Z,23.90
2022-08-12T22:17:49.959Z,23.90
2022-08-12T22:20:21.644Z,23.90
2022-08-12T22:22:56.016Z,23.90
2022-08-12T22:25:27.943Z,23.90
2022-08-12T22:28:13.546Z,23.80
2022-08-12T22:30:59.849Z,23.80
2022-08-12T22:33:26.983Z,23.70
2022-08-12T22:35:59.731Z,23.70
2022-08-12T22:38:29.849Z,23.70
2022-08-12T22:41:03.021Z,23.70
2022-08-12T22:43:59.795Z,23.70
2022-08-12T22:46:34.860Z,23.70
2022-08-12T22:49:02.064Z,23.60
2022-08-12T22:51:43.006Z,23.60
2022-08-12T22:54:37.018Z,23.60
2022-08-12T22:57:12.495Z,23.60
2022-08-12T22:59:55.453Z,23.60
2022-08-12T23:02:28.816Z,23.50
2022-08-12T23:04:57.432Z,23.50
2022-08-12T23:07:24.639Z,23.50
2022-08-12T23:09:52.207Z,23.50
2022-08-12T23:12:46.556Z,23.50
2022-08-12T23:15:14.685Z,23.50
2022-08-12T23:17:42.918Z,23.40
2022-08-12T23:20:11.452Z,23.40
2022-08-12T23:22:40.186Z,23.40
2022-08-12T23:25:21.068Z,23.40
2022-08-12T23:28:29.332Z,23.30
2022-08-12T23:31:04.273Z,23.30
2022-08-12T23:34:01.818Z,23.30
2022-08-12T23:36:31.437Z,23.30
2022-08-12T23:40:13.977Z,23.30
2022-08-12T23:42:16.836Z,23.20
2022-08-12T23:44:45.718Z,23.20
2022-08-12T23:47:14.325Z,23.20
2022-08-12T23:49:58.485Z,23.20
2022-08-12T23:52:34.743Z,23.20
2022-08-12T23:55:23.351Z,23.10
2022-08-12T23:58:17.100Z,23.10
